Time;durP1;ratioP1;P1;durP2;ratioP2;P2;SDS_P1;SDS_P2;PMS_P1;PMS_P2;Temp;Humidity;BMP_temperature;BMP_pressure;BME280_temperature;BME280_humidity;BME280_pressure;Samples;Min_cycle;Max_cycle;Signal;HPM_P1;HPM_P2
2023/10/06 00:01:43;;;;;;;14.73;7.90;;;10.00;78.60;;;;;;5037179;28;20025;-85
2023/10/06 00:04:13;;;;;;;14.77;7.00;;;10.00;78.50;;;;;;5057266;28;20025;-86
2023/10/06 00:06:42;;;;;;;13.10;6.75;;;9.90;78.60;;;;;;5056962;28;20033;-83
2023/10/06 00:09:09;;;;;;;13.55;6.88;;;9.90;78.60;;;;;;5054735;28;20048;-86
2023/10/06 00:11:37;;;;;;;12.88;6.47;;;9.90;78.70;;;;;;5054155;28;20033;-86
2023/10/06 00:14:07;;;;;;;15.20;6.63;;;9.90;78.80;;;;;;5053779;28;20619;-86
2023/10/06 00:16:39;;;;;;;14.82;8.20;;;9.80;78.70;;;;;;5054496;28;20037;-86
2023/10/06 00:19:31;;;;;;;13.88;6.93;;;9.80;79.00;;;;;;5054186;28;20068;-84
2023/10/06 00:24:42;;;;;;;13.40;7.10;;;9.80;78.70;;;;;;5053828;28;20029;-84
2023/10/06 00:27:12;;;;;;;13.65;6.25;;;9.90;78.50;;;;;;5057108;28;20037;-84
2023/10/06 00:29:49;;;;;;;12.88;6.55;;;9.90;78.60;;;;;;5057480;28;20358;-83
2023/10/06 00:32:26;;;;;;;15.30;6.40;;;9.80;78.70;;;;;;5057088;28;20037;-71
2023/10/06 00:34:54;;;;;;;12.07;5.82;;;9.80;78.70;;;;;;5056655;28;20096;-71
2023/10/06 00:37:23;;;;;;;14.27;7.03;;;9.80;78.60;;;;;;5056680;28;20389;-71
2023/10/06 00:39:56;;;;;;;15.88;6.50;;;9.70;79.10;;;;;;5057083;28;20048;-75
2023/10/06 00:42:22;;;;;;;21.55;7.65;;;9.70;79.20;;;;;;5056783;28;20035;-71
2023/10/06 00:44:48;;;;;;;15.93;6.97;;;9.70;79.50;;;;;;5056938;28;20032;-73
2023/10/06 00:47:14;;;;;;;12.80;6.57;;;9.70;79.30;;;;;;5056393;28;20045;-75
2023/10/06 00:49:43;;;;;;;18.58;6.75;;;9.70;79.30;;;;;;5055659;28;20396;-71
2023/10/06 00:52:11;;;;;;;16.65;7.03;;;9.70;79.20;;;;;;5056201;28;20033;-75
2023/10/06 00:54:39;;;;;;;14.63;6.22;;;9.60;79.00;;;;;;5056240;28;20110;-72
2023/10/06 00:57:08;;;;;;;17.13;6.68;;;9.50;79.40;;;;;;5056458;28;20092;-72
2023/10/06 00:59:38;;;;;;;20.40;6.47;;;9.40;79.70;;;;;;5056229;28;20095;-74
2023/10/06 01:02:08;;;;;;;14.38;6.28;;;9.40;79.90;;;;;;5056382;28;20024;-73
2023/10/06 01:04:38;;;;;;;17.25;6.43;;;9.40;80.10;;;;;;5056586;28;20040;-72
2023/10/06 01:07:03;;;;;;;15.32;6.35;;;9.40;79.90;;;;;;5056708;28;20033;-69
2023/10/06 01:09:35;;;;;;;12.93;6.45;;;9.40;79.90;;;;;;5056094;28;20361;-72
2023/10/06 01:12:05;;;;;;;15.38;5.90;;;9.40;79.80;;;;;;5055757;28;20044;-71
2023/10/06 01:14:34;;;;;;;12.65;6.68;;;9.30;79.80;;;;;;5055317;28;20021;-69
2023/10/06 01:17:18;;;;;;;11.90;5.40;;;9.20;79.80;;;;;;5055111;28;20424;-74
2023/10/06 01:19:48;;;;;;;11.23;6.15;;;9.20;80.20;;;;;;5037588;28;20087;-69
2023/10/06 01:22:25;;;;;;;13.23;6.00;;;9.10;80.40;;;;;;5055207;28;20426;-70
2023/10/06 01:24:53;;;;;;;17.85;6.25;;;9.10;80.70;;;;;;5053783;28;20092;-76
2023/10/06 01:27:19;;;;;;;14.68;6.20;;;9.10;80.70;;;;;;5055948;28;20108;-82
2023/10/06 01:29:45;;;;;;;15.27;6.03;;;9.00;80.90;;;;;;5055164;28;20013;-83
2023/10/06 01:32:11;;;;;;;14.57;5.88;;;9.00;80.90;;;;;;5055284;28;20516;-83
2023/10/06 01:34:39;;;;;;;11.13;5.70;;;8.90;81.40;;;;;;5055109;28;20036;-82
2023/10/06 01:37:12;;;;;;;17.08;6.97;;;8.90;81.40;;;;;;5055491;28;20104;-74
2023/10/06 01:39:39;;;;;;;12.98;6.47;;;8.90;81.50;;;;;;5054844;28;20575;-79
2023/10/06 01:42:08;;;;;;;15.52;6.20;;;9.00;81.40;;;;;;5054974;28;20021;-71
2023/10/06 01:44:34;;;;;;;14.00;6.65;;;8.90;81.60;;;;;;5054750;28;20025;-71
2023/10/06 01:47:04;;;;;;;12.25;6.45;;;8.90;81.80;;;;;;5054659;28;20044;-73
2023/10/06 01:49:31;;;;;;;11.57;5.57;;;9.00;81.70;;;;;;5055680;28;20025;-82
2023/10/06 01:51:56;;;;;;;14.23;5.97;;;9.10;81.50;;;;;;5056173;28;20119;-84
2023/10/06 01:54:27;;;;;;;13.15;6.10;;;9.20;81.20;;;;;;5055856;28;20083;-85
2023/10/06 01:56:54;;;;;;;15.75;6.65;;;9.20;80.90;;;;;;5055609;28;20040;-83
2023/10/06 01:59:20;;;;;;;14.45;6.82;;;9.30;80.70;;;;;;5056514;28;20025;-84
2023/10/06 02:01:46;;;;;;;15.07;6.22;;;9.30;80.90;;;;;;5056236;28;20035;-85
2023/10/06 02:04:14;;;;;;;17.52;7.20;;;9.20;81.10;;;;;;5055547;28;20017;-80
2023/10/06 02:06:41;;;;;;;17.38;6.75;;;9.20;81.10;;;;;;5056055;28;20448;-83
2023/10/06 02:09:17;;;;;;;15.18;6.93;;;9.10;81.10;;;;;;5055827;28;20060;-82
2023/10/06 02:11:44;;;;;;;14.10;6.75;;;9.00;81.00;;;;;;5055698;28;20052;-83
2023/10/06 02:14:18;;;;;;;11.63;5.95;;;8.90;80.80;;;;;;5055250;28;20424;-85
2023/10/06 02:16:45;;;;;;;14.00;6.47;;;8.80;81.00;;;;;;5055326;28;20116;-82
2023/10/06 02:19:11;;;;;;;12.73;6.32;;;8.80;81.30;;;;;;5037079;28;20036;-81
2023/10/06 02:21:49;;;;;;;12.20;6.55;;;8.80;81.60;;;;;;5055049;28;20021;-83
2023/10/06 02:24:17;;;;;;;15.25;6.45;;;8.80;81.50;;;;;;5054998;28;20025;-81
2023/10/06 02:26:50;;;;;;;13.93;6.20;;;8.90;81.40;;;;;;5043015;28;20083;-82
2023/10/06 02:29:22;;;;;;;10.35;5.95;;;8.90;80.80;;;;;;5055042;28;20021;-82
2023/10/06 02:31:52;;;;;;;14.70;6.38;;;8.90;80.50;;;;;;5058820;28;20036;-77
2023/10/06 02:34:39;;;;;;;11.73;5.88;;;8.80;80.50;;;;;;5052372;28;20028;-72
2023/10/06 02:37:06;;;;;;;13.82;6.78;;;8.90;80.40;;;;;;5067206;28;20029;-74
2023/10/06 02:39:34;;;;;;;13.05;5.80;;;8.90;80.30;;;;;;5061002;28;20055;-71
2023/10/06 02:42:08;;;;;;;12.60;5.70;;;9.00;80.30;;;;;;5054189;28;20035;-72
2023/10/06 02:44:38;;;;;;;12.55;5.95;;;8.90;80.30;;;;;;5036761;28;20147;-70
2023/10/06 02:47:08;;;;;;;14.57;6.22;;;8.90;80.30;;;;;;5036539;28;20052;-71
2023/10/06 02:49:37;;;;;;;16.63;7.28;;;8.90;80.20;;;;;;5053857;28;20029;-71
2023/10/06 02:52:15;;;;;;;18.15;6.97;;;8.90;80.20;;;;;;5054479;28;20033;-70
2023/10/06 02:54:56;;;;;;;13.32;6.03;;;8.80;80.70;;;;;;5054492;28;20029;-70
2023/10/06 02:57:22;;;;;;;13.02;5.88;;;8.70;80.80;;;;;;5054436;28;20037;-70
2023/10/06 02:59:48;;;;;;;17.42;6.93;;;8.70;80.90;;;;;;5053883;28;20017;-70
2023/10/06 03:02:17;;;;;;;12.20;5.75;;;8.70;81.10;;;;;;5054407;28;20029;-71
2023/10/06 03:04:43;;;;;;;11.48;6.00;;;8.60;81.10;;;;;;5053772;28;20469;-72
2023/10/06 03:07:15;;;;;;;12.40;6.30;;;8.60;81.10;;;;;;5053923;28;20032;-72
2023/10/06 03:09:46;;;;;;;17.88;7.05;;;8.60;81.00;;;;;;5053997;28;20380;-71
2023/10/06 03:14:50;;;;;;;14.43;7.55;;;8.60;81.60;;;;;;5054359;28;20025;-71
2023/10/06 03:17:19;;;;;;;15.73;7.18;;;8.60;82.30;;;;;;5053845;28;20029;-71
2023/10/06 03:19:44;;;;;;;17.33;7.28;;;8.60;82.50;;;;;;5053909;28;20441;-79
2023/10/06 03:22:13;;;;;;;15.93;6.45;;;8.70;81.80;;;;;;5054096;28;20060;-83
2023/10/06 03:25:00;;;;;;;16.00;7.53;;;8.60;81.50;;;;;;5053870;28;20071;-73
2023/10/06 03:27:25;;;;;;;16.08;8.13;;;8.70;82.40;;;;;;5052164;28;20074;-75
2023/10/06 03:29:55;;;;;;;20.48;8.63;;;8.70;82.70;;;;;;5053214;28;20021;-72
2023/10/06 03:32:28;;;;;;;16.98;7.78;;;8.70;82.50;;;;;;5053106;28;20039;-72
2023/10/06 03:34:59;;;;;;;19.30;8.40;;;8.70;82.50;;;;;;5053786;28;20159;-72
2023/10/06 03:37:51;;;;;;;19.17;7.78;;;8.60;82.40;;;;;;5053801;28;20112;-72
2023/10/06 03:41:09;;;;;;;18.15;7.63;;;8.60;82.80;;;;;;5054096;28;20053;-74
2023/10/06 03:43:12;;;;;;;16.80;8.00;;;8.50;83.10;;;;;;5045103;28;20064;-83
2023/10/06 03:45:40;;;;;;;19.33;8.45;;;8.50;83.40;;;;;;5053483;28;20055;-72
2023/10/06 03:48:11;;;;;;;17.92;7.20;;;8.40;83.70;;;;;;5053115;28;20504;-75
2023/10/06 03:50:38;;;;;;;18.20;8.52;;;8.50;83.70;;;;;;5053816;28;20385;-73
2023/10/06 03:53:07;;;;;;;22.33;9.00;;;8.40;83.80;;;;;;5053788;28;20044;-74
2023/10/06 03:55:40;;;;;;;16.33;7.43;;;8.40;84.00;;;;;;5053456;28;20028;-76
2023/10/06 03:58:07;;;;;;;16.35;8.80;;;8.40;84.50;;;;;;5053720;28;20017;-81
2023/10/06 04:00:38;;;;;;;18.58;8.38;;;8.40;84.40;;;;;;5054047;28;20029;-82
2023/10/06 04:03:05;;;;;;;14.57;7.82;;;8.50;84.40;;;;;;5053900;28;20493;-75
2023/10/06 04:05:37;;;;;;;21.35;8.55;;;8.40;84.20;;;;;;5053658;28;20102;-77
2023/10/06 04:08:11;;;;;;;18.00;8.13;;;8.50;83.90;;;;;;5053356;28;20051;-73
2023/10/06 04:10:40;;;;;;;18.38;8.38;;;8.60;83.90;;;;;;5054299;28;20541;-85
2023/10/06 04:13:08;;;;;;;19.73;7.88;;;8.60;83.80;;;;;;5036807;28;20037;-79
2023/10/06 04:15:38;;;;;;;19.95;7.90;;;8.60;83.60;;;;;;5053859;28;20017;-77
2023/10/06 04:18:10;;;;;;;17.33;7.75;;;8.60;83.10;;;;;;5053757;28;20070;-81
2023/10/06 04:20:42;;;;;;;16.77;6.70;;;8.50;82.30;;;;;;5054075;28;20022;-82
2023/10/06 04:23:08;;;;;;;14.10;7.15;;;8.40;82.20;;;;;;5053713;28;20108;-79
2023/10/06 04:25:38;;;;;;;15.82;7.40;;;8.40;82.20;;;;;;5052389;28;20052;-81
2023/10/06 04:28:16;;;;;;;14.52;7.13;;;8.40;81.80;;;;;;5035744;28;20408;-82
2023/10/06 04:30:44;;;;;;;17.13;7.78;;;8.40;82.80;;;;;;5053741;28;20037;-81
2023/10/06 04:33:11;;;;;;;16.05;6.80;;;8.20;81.80;;;;;;5035836;28;20120;-79
2023/10/06 04:35:40;;;;;;;22.95;7.80;;;8.20;82.30;;;;;;5053719;28;20044;-81
2023/10/06 04:38:12;;;;;;;16.80;8.73;;;8.10;83.70;;;;;;5055007;28;20031;-78
2023/10/06 04:40:41;;;;;;;13.77;7.55;;;8.10;84.20;;;;;;5055407;28;20052;-73
2023/10/06 04:43:07;;;;;;;17.23;8.52;;;8.10;84.30;;;;;;5054796;28;20031;-83
2023/10/06 04:45:33;;;;;;;20.30;8.90;;;8.00;84.30;;;;;;5053346;28;20485;-75
2023/10/06 04:48:00;;;;;;;17.45;7.25;;;8.00;84.50;;;;;;5045643;28;20238;-83
2023/10/06 04:50:29;;;;;;;17.13;7.93;;;8.00;84.60;;;;;;5036772;28;20036;-81
2023/10/06 04:52:56;;;;;;;17.67;7.93;;;8.00;84.30;;;;;;5070192;28;20049;-72
2023/10/06 04:55:22;;;;;;;18.02;7.50;;;8.00;84.20;;;;;;5053555;28;20021;-76
2023/10/06 04:57:47;;;;;;;12.63;6.88;;;8.00;84.10;;;;;;5053737;28;20447;-75
2023/10/06 05:00:15;;;;;;;18.27;7.07;;;8.10;83.80;;;;;;5055772;28;20052;-71
2023/10/06 05:02:44;;;;;;;18.35;7.85;;;8.10;83.20;;;;;;5055116;28;20013;-72
2023/10/06 05:05:23;;;;;;;21.65;7.38;;;8.00;83.40;;;;;;5051578;28;20515;-75
2023/10/06 05:07:50;;;;;;;19.13;8.43;;;7.90;84.20;;;;;;5053328;28;20021;-72
2023/10/06 05:10:25;;;;;;;18.70;8.32;;;7.90;84.20;;;;;;5052941;28;20112;-76
2023/10/06 05:12:51;;;;;;;20.67;7.60;;;7.90;84.80;;;;;;5055672;28;20029;-75
2023/10/06 05:15:23;;;;;;;15.30;7.25;;;8.00;84.90;;;;;;5058909;28;20028;-72
2023/10/06 05:17:55;;;;;;;16.55;7.10;;;8.00;84.70;;;;;;5059572;28;20064;-72
2023/10/06 05:20:24;;;;;;;18.73;6.80;;;8.10;84.30;;;;;;5073446;28;20028;-72
2023/10/06 05:22:50;;;;;;;17.15;6.97;;;8.10;83.10;;;;;;5056192;28;20096;-73
2023/10/06 05:25:19;;;;;;;15.32;6.75;;;8.10;83.70;;;;;;5055109;28;20029;-74
2023/10/06 05:27:46;;;;;;;15.10;6.78;;;8.20;82.80;;;;;;5038493;28;20017;-73
2023/10/06 05:30:13;;;;;;;16.58;6.40;;;8.20;82.90;;;;;;5056282;28;20025;-74
2023/10/06 05:32:42;;;;;;;12.13;6.53;;;8.20;82.70;;;;;;5056591;28;20037;-73
2023/10/06 05:35:08;;;;;;;16.40;7.13;;;8.20;82.50;;;;;;5056262;28;20025;-72
2023/10/06 05:37:34;;;;;;;16.45;7.88;;;8.30;82.40;;;;;;5055610;28;20342;-72
2023/10/06 05:39:59;;;;;;;15.55;7.03;;;8.30;81.70;;;;;;5054765;28;20117;-72
2023/10/06 05:42:26;;;;;;;14.50;7.72;;;8.20;81.70;;;;;;5054439;28;20064;-71
2023/10/06 05:44:53;;;;;;;16.25;7.38;;;8.30;81.70;;;;;;5053908;28;20021;-75
2023/10/06 05:47:19;;;;;;;18.52;7.63;;;8.30;81.80;;;;;;5054408;28;20045;-75
2023/10/06 05:49:49;;;;;;;19.20;8.93;;;8.30;81.70;;;;;;5054383;28;20390;-73
2023/10/06 05:52:16;;;;;;;14.43;7.47;;;8.30;81.70;;;;;;5055599;28;20025;-72
2023/10/06 05:54:42;;;;;;;14.48;7.80;;;8.30;82.00;;;;;;5055866;28;20032;-72
2023/10/06 05:57:09;;;;;;;19.00;8.35;;;8.30;82.40;;;;;;5054268;28;20025;-73
2023/10/06 05:59:36;;;;;;;19.58;8.82;;;8.40;82.20;;;;;;5054106;28;20056;-71
2023/10/06 06:02:04;;;;;;;19.88;8.02;;;8.40;82.00;;;;;;5053985;28;20028;-72
2023/10/06 06:04:30;;;;;;;15.50;7.72;;;8.50;81.90;;;;;;5055408;28;20028;-71
2023/10/06 06:06:57;;;;;;;17.55;8.23;;;8.50;81.70;;;;;;5055241;28;20389;-74
2023/10/06 06:09:30;;;;;;;24.48;8.52;;;8.50;81.60;;;;;;5053865;28;20076;-73
2023/10/06 06:11:58;;;;;;;16.45;8.18;;;8.60;81.50;;;;;;5054609;28;20036;-71
2023/10/06 06:14:24;;;;;;;19.23;8.40;;;8.60;81.70;;;;;;5054599;28;20057;-75
2023/10/06 06:16:50;;;;;;;13.68;7.45;;;8.60;82.10;;;;;;5054637;28;20063;-72
2023/10/06 06:19:16;;;;;;;19.75;8.27;;;8.70;82.10;;;;;;5053225;28;20025;-72
2023/10/06 06:21:42;;;;;;;18.35;8.25;;;8.70;82.00;;;;;;5069607;28;20124;-74
2023/10/06 06:24:08;;;;;;;20.92;9.43;;;8.70;82.00;;;;;;5053548;28;20013;-74
2023/10/06 06:26:37;;;;;;;17.20;8.38;;;8.80;82.10;;;;;;5054830;28;20020;-73
2023/10/06 06:29:08;;;;;;;17.30;7.97;;;8.80;82.50;;;;;;5053514;28;20557;-71
2023/10/06 06:31:34;;;;;;;17.42;8.43;;;8.80;82.40;;;;;;5053460;28;20060;-71
2023/10/06 06:34:06;;;;;;;15.75;7.60;;;8.90;85.60;;;;;;5054909;28;20036;-76
2023/10/06 06:36:32;;;;;;;19.08;8.43;;;9.00;83.40;;;;;;5055431;28;20025;-77
2023/10/06 06:38:58;;;;;;;18.70;8.35;;;9.10;83.00;;;;;;5053073;28;20033;-73
2023/10/06 06:41:27;;;;;;;14.73;7.50;;;9.30;83.50;;;;;;5053268;28;20447;-74
2023/10/06 06:43:58;;;;;;;15.13;8.35;;;9.60;82.10;;;;;;5053737;28;20032;-74
2023/10/06 06:46:26;;;;;;;21.85;8.55;;;9.80;81.00;;;;;;5059203;28;20394;-76
2023/10/06 06:48:52;;;;;;;17.02;7.95;;;10.00;79.60;;;;;;5052656;28;20515;-67
2023/10/06 06:51:20;;;;;;;16.40;8.82;;;10.30;79.00;;;;;;5054992;28;20137;-72
2023/10/06 06:53:47;;;;;;;15.15;9.10;;;10.50;77.40;;;;;;5054280;28;20040;-72
2023/10/06 06:56:12;;;;;;;20.23;10.95;;;10.50;75.00;;;;;;5054864;28;20056;-72
2023/10/06 06:58:39;;;;;;;18.05;10.98;;;10.40;75.10;;;;;;5053094;28;20025;-73
2023/10/06 07:01:14;;;;;;;17.20;9.93;;;10.30;74.80;;;;;;5036065;28;20021;-75
2023/10/06 07:03:40;;;;;;;15.75;8.48;;;10.30;75.00;;;;;;5053802;28;20032;-73
2023/10/06 07:06:12;;;;;;;14.57;7.93;;;10.40;74.90;;;;;;5054341;28;20100;-73
2023/10/06 07:08:37;;;;;;;18.33;9.00;;;10.40;74.90;;;;;;5051995;28;20466;-73
2023/10/06 07:11:08;;;;;;;20.38;9.02;;;10.40;74.70;;;;;;5053588;28;20036;-73
2023/10/06 07:13:33;;;;;;;18.95;8.30;;;10.30;75.30;;;;;;5052707;28;20056;-73
2023/10/06 07:15:59;;;;;;;13.60;8.52;;;10.40;75.50;;;;;;5052509;28;20436;-73
2023/10/06 07:18:26;;;;;;;16.63;8.43;;;10.40;75.50;;;;;;5052304;28;20017;-73
2023/10/06 07:20:52;;;;;;;23.55;10.25;;;10.60;75.40;;;;;;5053649;28;20036;-73
2023/10/06 07:23:18;;;;;;;17.85;9.82;;;10.60;75.20;;;;;;5052473;28;20021;-72
2023/10/06 07:25:43;;;;;;;14.90;9.55;;;10.60;75.30;;;;;;5053737;28;20108;-76
2023/10/06 07:28:12;;;;;;;15.02;9.30;;;10.80;75.40;;;;;;5053722;28;20025;-76
2023/10/06 07:30:37;;;;;;;17.92;10.35;;;10.90;75.30;;;;;;5053491;28;20025;-72
2023/10/06 07:33:03;;;;;;;19.27;10.18;;;11.00;75.40;;;;;;5053497;28;20059;-72
2023/10/06 07:35:36;;;;;;;23.63;10.82;;;11.10;75.90;;;;;;5051353;28;20047;-72
2023/10/06 07:38:03;;;;;;;23.95;10.23;;;11.20;76.10;;;;;;5053202;28;20063;-71
2023/10/06 07:40:28;;;;;;;16.10;9.60;;;11.30;76.40;;;;;;5052947;28;20024;-73
2023/10/06 07:42:58;;;;;;;23.08;10.95;;;11.50;75.90;;;;;;5052951;28;20029;-71
2023/10/06 07:45:26;;;;;;;22.33;10.38;;;11.60;75.80;;;;;;5053120;28;20107;-73
2023/10/06 07:47:53;;;;;;;19.98;10.55;;;11.60;76.30;;;;;;5052761;28;20493;-72
2023/10/06 07:50:18;;;;;;;18.48;10.00;;;11.70;76.50;;;;;;5051747;28;20092;-72
2023/10/06 07:52:48;;;;;;;24.95;11.38;;;11.80;76.20;;;;;;5054887;28;20041;-74
2023/10/06 07:55:15;;;;;;;18.25;9.80;;;11.90;75.90;;;;;;5053009;28;20028;-72
2023/10/06 07:57:42;;;;;;;19.13;9.75;;;12.10;76.50;;;;;;5052998;28;20027;-72
2023/10/06 08:00:14;;;;;;;15.93;9.82;;;12.20;75.70;;;;;;5051779;28;20021;-74
2023/10/06 08:02:39;;;;;;;17.42;9.65;;;12.30;76.10;;;;;;5052880;28;20108;-74
2023/10/06 08:05:12;;;;;;;13.65;7.93;;;12.50;75.90;;;;;;5051543;28;20051;-73
2023/10/06 08:07:42;;;;;;;21.02;9.68;;;12.80;75.60;;;;;;5051859;28;20074;-73
2023/10/06 08:10:13;;;;;;;18.58;9.70;;;13.00;74.10;;;;;;5051707;28;20078;-72
2023/10/06 08:12:40;;;;;;;17.63;10.05;;;13.10;73.20;;;;;;5052999;28;20485;-72
2023/10/06 08:15:09;;;;;;;15.93;9.70;;;13.20;72.20;;;;;;5052921;28;20044;-74
2023/10/06 08:17:35;;;;;;;17.02;8.27;;;13.30;72.30;;;;;;5051682;28;20031;-75
2023/10/06 08:20:02;;;;;;;16.88;9.40;;;13.50;71.40;;;;;;5052913;28;20029;-76
2023/10/06 08:22:29;;;;;;;18.70;8.93;;;13.70;71.40;;;;;;5053045;28;20040;-75
2023/10/06 08:24:55;;;;;;;16.17;8.45;;;13.90;70.70;;;;;;5052732;28;20040;-72
2023/10/06 08:27:23;;;;;;;20.38;10.00;;;14.10;70.30;;;;;;5052866;28;20096;-75
2023/10/06 08:29:53;;;;;;;17.65;8.65;;;14.30;69.20;;;;;;5052875;28;20064;-75
2023/10/06 08:32:19;;;;;;;15.40;9.35;;;14.50;69.30;;;;;;5051379;28;20477;-74
2023/10/06 08:34:46;;;;;;;16.80;8.90;;;14.60;68.90;;;;;;5051751;28;20028;-74
2023/10/06 08:37:15;;;;;;;17.50;9.68;;;14.60;68.70;;;;;;5051339;28;20485;-74
2023/10/06 08:39:40;;;;;;;16.27;9.45;;;14.70;67.60;;;;;;5052530;28;20025;-72
2023/10/06 08:42:10;;;;;;;13.10;8.85;;;14.80;67.50;;;;;;5051034;28;20029;-73
2023/10/06 08:44:40;;;;;;;21.50;9.95;;;15.00;67.30;;;;;;5052623;28;20485;-73
2023/10/06 08:47:09;;;;;;;15.27;8.13;;;15.10;66.70;;;;;;5054319;28;20098;-76
2023/10/06 08:49:36;;;;;;;16.88;8.20;;;15.30;66.50;;;;;;5056424;28;20032;-73
2023/10/06 08:52:04;;;;;;;17.33;8.48;;;15.50;66.30;;;;;;5055128;28;20033;-73
2023/10/06 08:54:31;;;;;;;20.88;9.68;;;15.70;66.00;;;;;;5056553;28;20152;-75
2023/10/06 08:56:56;;;;;;;18.98;8.50;;;15.60;65.40;;;;;;5056439;28;20037;-72
2023/10/06 08:59:22;;;;;;;17.63;8.85;;;15.80;66.20;;;;;;5055103;28;20120;-76
2023/10/06 09:01:49;;;;;;;11.60;7.70;;;15.90;66.00;;;;;;5055117;28;20018;-74
2023/10/06 09:04:15;;;;;;;13.50;7.88;;;16.20;65.50;;;;;;5055059;28;20124;-77
2023/10/06 09:07:11;;;;;;;19.48;8.45;;;16.40;64.50;;;;;;5057228;28;20071;-73
2023/10/06 09:09:37;;;;;;;16.17;8.85;;;16.60;64.00;;;;;;5058107;28;20025;-72
2023/10/06 09:12:03;;;;;;;16.50;8.90;;;16.80;64.60;;;;;;5056069;28;20482;-72
2023/10/06 09:14:30;;;;;;;20.30;9.88;;;16.90;63.60;;;;;;5056076;28;20025;-72
2023/10/06 09:17:01;;;;;;;15.30;8.57;;;17.10;63.20;;;;;;5054695;28;20428;-74
2023/10/06 09:19:47;;;;;;;16.38;8.82;;;17.10;64.10;;;;;;5054680;28;20025;-73
2023/10/06 09:22:13;;;;;;;;;;;17.30;62.80;;;;;;5056435;28;20021;-73
2023/10/06 09:24:39;;;;;;;17.05;8.68;;;17.50;62.70;;;;;;5055925;28;19909;-74
2023/10/06 09:27:21;;;;;;;13.63;8.07;;;17.70;61.80;;;;;;5054277;28;20025;-72
2023/10/06 09:29:47;;;;;;;11.90;7.10;;;18.00;60.20;;;;;;5053682;28;20441;-73
2023/10/06 09:32:21;;;;;;;12.85;7.75;;;18.30;59.60;;;;;;5053768;28;20120;-73
2023/10/06 09:34:47;;;;;;;15.25;7.53;;;18.60;59.40;;;;;;5055325;28;20021;-76
2023/10/06 09:37:19;;;;;;;13.85;6.88;;;18.70;56.90;;;;;;5055600;28;20024;-75
2023/10/06 09:39:59;;;;;;;11.55;6.20;;;18.90;53.60;;;;;;5055900;28;20036;-74
2023/10/06 09:42:30;;;;;;;13.93;6.97;;;19.10;52.70;;;;;;5054310;28;20052;-75
2023/10/06 09:45:06;;;;;;;15.43;7.05;;;19.30;52.60;;;;;;5054157;28;20484;-74
2023/10/06 09:47:38;;;;;;;9.57;5.53;;;19.60;52.00;;;;;;5053423;28;20057;-77
2023/10/06 09:50:06;;;;;;;11.07;5.97;;;19.70;50.50;;;;;;5055026;28;20029;-75
2023/10/06 09:52:34;;;;;;;15.10;6.75;;;19.80;49.90;;;;;;5054508;28;20437;-75
2023/10/06 09:55:04;;;;;;;10.98;6.35;;;20.10;49.70;;;;;;5044839;28;20021;-73
2023/10/06 09:57:32;;;;;;;12.95;6.10;;;20.30;49.40;;;;;;5044866;28;20024;-73
2023/10/06 10:00:00;;;;;;;11.50;5.60;;;20.50;48.90;;;;;;5061367;28;20024;-74
2023/10/06 10:02:29;;;;;;;10.98;5.88;;;20.70;48.20;;;;;;5044593;28;20108;-74
2023/10/06 10:04:59;;;;;;;8.10;5.10;;;20.90;46.70;;;;;;5044999;28;20509;-73
2023/10/06 10:07:28;;;;;;;10.73;6.22;;;21.10;46.00;;;;;;5042969;28;20028;-75
2023/10/06 10:09:55;;;;;;;9.40;5.10;;;21.30;44.40;;;;;;5051500;28;20087;-75
2023/10/06 10:13:08;;;;;;;10.00;5.15;;;21.60;44.60;;;;;;5053928;28;20028;-76
2023/10/06 10:15:58;;;;;;;7.43;4.72;;;21.80;43.00;;;;;;5035262;28;20445;-72
2023/10/06 10:18:29;;;;;;;9.45;5.88;;;22.00;41.60;;;;;;5052605;28;20017;-76
2023/10/06 10:20:59;;;;;;;8.40;5.05;;;22.00;40.80;;;;;;5051539;28;20415;-79
2023/10/06 10:23:29;;;;;;;7.78;4.68;;;21.90;39.70;;;;;;5054368;28;20469;-79
2023/10/06 10:26:19;;;;;;;11.48;4.78;;;22.00;40.20;;;;;;5054207;28;20492;-78
2023/10/06 10:29:15;;;;;;;9.82;5.88;;;22.00;38.20;;;;;;5055788;28;20090;-79
2023/10/06 10:31:50;;;;;;;8.73;5.07;;;22.10;36.90;;;;;;5049359;28;20036;-78
2023/10/06 10:34:20;;;;;;;8.80;4.60;;;22.20;36.70;;;;;;5042158;28;20043;-80
2023/10/06 10:36:48;;;;;;;9.98;5.40;;;22.30;35.40;;;;;;5042922;28;20021;-77
2023/10/06 10:39:17;;;;;;;9.60;5.25;;;22.50;33.30;;;;;;5051029;28;20100;-77
2023/10/06 10:41:45;;;;;;;9.15;5.18;;;22.60;33.80;;;;;;5053400;28;20120;-79
2023/10/06 10:44:12;;;;;;;9.63;5.47;;;22.80;34.40;;;;;;5044434;28;20029;-80
2023/10/06 10:46:48;;;;;;;8.15;4.97;;;23.00;32.50;;;;;;5044040;28;20075;-75
2023/10/06 10:49:18;;;;;;;9.23;5.00;;;23.10;31.70;;;;;;5050400;28;20048;-74
2023/10/06 10:51:54;;;;;;;8.10;5.13;;;23.50;31.60;;;;;;5051923;28;20029;-76
2023/10/06 10:54:31;;;;;;;;;;;23.70;31.20;;;;;;5045841;28;20048;-77
2023/10/06 10:57:05;;;;;;;11.40;5.63;;;23.70;31.00;;;;;;5053625;28;20360;-75
2023/10/06 11:02:51;;;;;;;8.50;5.00;;;23.90;30.00;;;;;;5056290;28;20040;-76
2023/10/06 11:05:21;;;;;;;10.18;5.32;;;24.10;30.90;;;;;;5053201;28;20095;-78
2023/10/06 11:08:02;;;;;;;8.68;5.00;;;23.60;31.40;;;;;;5043637;28;20104;-77
2023/10/06 11:10:28;;;;;;;8.15;4.78;;;23.80;31.90;;;;;;5053553;28;20108;-77
2023/10/06 11:13:18;;;;;;;8.57;4.80;;;24.10;31.70;;;;;;5053992;28;20064;-75
2023/10/06 11:15:45;;;;;;;7.63;5.10;;;24.10;29.90;;;;;;5054034;28;20013;-78
2023/10/06 11:18:13;;;;;;;9.75;4.72;;;24.20;30.00;;;;;;5035907;28;20358;-77
2023/10/06 11:20:39;;;;;;;7.20;4.90;;;24.30;28.80;;;;;;5053807;28;20100;-73
2023/10/06 11:23:05;;;;;;;8.07;4.75;;;24.50;29.60;;;;;;5053827;28;20086;-76
2023/10/06 11:25:33;;;;;;;9.88;4.57;;;24.60;29.00;;;;;;5053502;28;20025;-74
2023/10/06 11:28:12;;;;;;;8.95;4.80;;;24.90;29.00;;;;;;5053302;28;20100;-72
2023/10/06 11:30:40;;;;;;;8.60;5.40;;;25.00;27.00;;;;;;5052162;28;20025;-74
2023/10/06 11:33:08;;;;;;;7.50;4.85;;;25.20;26.60;;;;;;5053420;28;20039;-77
2023/10/06 11:35:35;;;;;;;7.82;4.97;;;25.30;25.40;;;;;;5035361;28;20033;-76
2023/10/06 11:38:06;;;;;;;10.27;4.93;;;25.60;25.00;;;;;;5042842;28;20031;-75
2023/10/06 11:40:34;;;;;;;7.65;4.65;;;25.80;23.90;;;;;;5050489;28;20053;-73
2023/10/06 11:43:13;;;;;;;7.18;4.82;;;26.00;24.70;;;;;;5052531;28;20017;-73
2023/10/06 11:45:41;;;;;;;11.70;4.60;;;26.20;24.60;;;;;;5051434;28;20063;-73
2023/10/06 11:48:25;;;;;;;7.43;4.43;;;26.40;22.90;;;;;;5052004;28;20064;-73
2023/10/06 11:51:07;;;;;;;7.70;5.00;;;26.50;21.10;;;;;;5028555;28;20026;-78
2023/10/06 11:53:37;;;;;;;7.28;4.20;;;26.70;20.70;;;;;;5026324;28;20121;-77
2023/10/06 11:56:10;;;;;;;8.68;4.57;;;26.90;20.80;;;;;;5051096;28;20135;-77
2023/10/06 11:58:36;;;;;;;7.35;4.82;;;27.10;19.50;;;;;;5050297;28;20029;-73
2023/10/06 12:01:05;;;;;;;8.18;5.15;;;27.30;19.20;;;;;;5051785;28;20016;-73
2023/10/06 12:03:44;;;;;;;9.60;4.53;;;27.30;18.60;;;;;;5048776;28;20025;-77
2023/10/06 12:06:13;;;;;;;8.20;4.68;;;27.20;19.00;;;;;;5028208;28;20033;-75
2023/10/06 12:08:45;;;;;;;11.05;5.00;;;27.10;18.80;;;;;;5034200;28;20083;-73
2023/10/06 12:11:14;;;;;;;8.55;4.55;;;26.90;18.60;;;;;;5031028;28;20116;-73
2023/10/06 12:13:40;;;;;;;7.72;4.90;;;26.90;18.90;;;;;;5043091;28;20064;-73
2023/10/06 12:16:15;;;;;;;6.10;4.35;;;26.90;18.80;;;;;;5040874;28;20049;-75
2023/10/06 12:18:46;;;;;;;8.38;4.40;;;27.00;19.00;;;;;;5041622;28;20108;-74
2023/10/06 12:21:14;;;;;;;7.82;4.03;;;27.10;18.60;;;;;;5047876;28;20013;-77
2023/10/06 12:23:41;;;;;;;5.72;3.67;;;27.20;17.30;;;;;;5052191;28;20033;-77
2023/10/06 12:26:07;;;;;;;8.30;4.40;;;27.40;16.50;;;;;;5034113;28;20024;-76
2023/10/06 12:28:32;;;;;;;6.75;4.55;;;27.50;16.70;;;;;;5051948;28;20037;-76
2023/10/06 12:30:58;;;;;;;5.53;3.83;;;27.40;13.90;;;;;;5051844;28;20072;-74
2023/10/06 12:33:24;;;;;;;6.10;3.63;;;27.30;14.10;;;;;;5051872;28;20052;-76
2023/10/06 12:35:52;;;;;;;6.05;3.85;;;27.50;12.50;;;;;;5052054;28;20029;-77
2023/10/06 12:38:20;;;;;;;6.65;4.00;;;27.70;12.50;;;;;;5051721;28;20493;-73
2023/10/06 12:40:48;;;;;;;7.43;4.00;;;27.90;12.20;;;;;;5034394;28;20021;-73
2023/10/06 12:43:16;;;;;;;6.78;4.10;;;27.80;13.20;;;;;;5052148;28;20102;-73
2023/10/06 12:45:42;;;;;;;5.03;3.90;;;27.60;13.70;;;;;;5034248;28;20033;-78
2023/10/06 12:48:07;;;;;;;6.65;3.95;;;27.70;14.80;;;;;;5033828;28;20489;-77
2023/10/06 12:50:43;;;;;;;6.47;3.88;;;28.00;13.30;;;;;;5052119;28;20021;-75
2023/10/06 12:53:10;;;;;;;7.53;4.22;;;28.20;13.80;;;;;;5052674;28;20037;-73
2023/10/06 12:55:36;;;;;;;6.93;4.10;;;28.40;13.90;;;;;;5034525;28;20047;-74
2023/10/06 12:58:03;;;;;;;7.90;4.50;;;28.70;14.50;;;;;;5052619;28;20025;-74
2023/10/06 13:00:30;;;;;;;6.05;4.25;;;28.60;13.90;;;;;;5052590;28;20477;-75
2023/10/06 13:02:56;;;;;;;6.72;4.32;;;28.70;13.60;;;;;;5053100;28;20108;-71
2023/10/06 13:05:22;;;;;;;6.75;4.50;;;28.70;13.10;;;;;;5052789;28;20040;-73